sensor_id;sensor_type;location;lat;lon;timestamp;P1;durP1;ratioP1;P2;durP2;ratioP2
20458;SDS011;10388;52.314;7.938;2022-09-24T00:01:10;8.30;;;6.13;;
20458;SDS011;10388;52.314;7.938;2022-09-24T00:03:43;9.20;;;6.83;;
20458;SDS011;10388;52.314;7.938;2022-09-24T00:06:19;8.90;;;7.70;;
20458;SDS011;10388;52.314;7.938;2022-09-24T00:08:51;9.47;;;6.43;;
20458;SDS011;10388;52.314;7.938;2022-09-24T00:11:26;7.57;;;6.77;;
20458;SDS011;10388;52.314;7.938;2022-09-24T00:13:57;8.90;;;6.63;;
20458;SDS011;10388;52.314;7.938;2022-09-24T00:16:28;8.70;;;6.70;;
20458;SDS011;10388;52.314;7.938;2022-09-24T00:19:02;8.33;;;6.97;;
20458;SDS011;10388;52.314;7.938;2022-09-24T00:21:34;9.30;;;6.67;;
20458;SDS011;10388;52.314;7.938;2022-09-24T00:24:07;8.07;;;6.97;;
20458;SDS011;10388;52.314;7.938;2022-09-24T00:27:02;9.33;;;6.87;;
20458;SDS011;10388;52.314;7.938;2022-09-24T00:29:34;8.40;;;6.77;;
20458;SDS011;10388;52.314;7.938;2022-09-24T00:32:05;9.37;;;7.30;;
20458;SDS011;10388;52.314;7.938;2022-09-24T00:34:35;10.03;;;7.47;;
20458;SDS011;10388;52.314;7.938;2022-09-24T00:37:06;8.17;;;6.87;;
20458;SDS011;10388;52.314;7.938;2022-09-24T00:39:36;7.63;;;6.83;;
20458;SDS011;10388;52.314;7.938;2022-09-24T00:42:08;10.53;;;7.13;;
20458;SDS011;10388;52.314;7.938;2022-09-24T00:47:30;9.73;;;7.60;;
20458;SDS011;10388;52.314;7.938;2022-09-24T00:50:06;9.27;;;7.00;;
20458;SDS011;10388;52.314;7.938;2022-09-24T00:53:05;8.77;;;7.30;;
20458;SDS011;10388;52.314;7.938;2022-09-24T00:55:38;9.57;;;8.33;;
20458;SDS011;10388;52.314;7.938;2022-09-24T01:04:36;11.10;;;8.83;;
20458;SDS011;10388;52.314;7.938;2022-09-24T01:07:07;9.17;;;8.27;;
20458;SDS011;10388;52.314;7.938;2022-09-24T01:10:04;9.23;;;8.27;;
20458;SDS011;10388;52.314;7.938;2022-09-24T01:15:34;10.07;;;8.90;;
20458;SDS011;10388;52.314;7.938;2022-09-24T01:21:43;11.13;;;9.07;;
20458;SDS011;10388;52.314;7.938;2022-09-24T01:30:57;9.07;;;8.10;;
20458;SDS011;10388;52.314;7.938;2022-09-24T01:33:55;9.23;;;8.33;;
20458;SDS011;10388;52.314;7.938;2022-09-24T01:36:43;12.47;;;9.43;;
20458;SDS011;10388;52.314;7.938;2022-09-24T01:43:08;12.77;;;10.97;;
20458;SDS011;10388;52.314;7.938;2022-09-24T01:45:40;13.77;;;10.63;;
20458;SDS011;10388;52.314;7.938;2022-09-24T01:48:11;12.00;;;10.50;;
20458;SDS011;10388;52.314;7.938;2022-09-24T01:50:48;13.67;;;10.30;;
20458;SDS011;10388;52.314;7.938;2022-09-24T01:53:25;12.07;;;10.87;;
20458;SDS011;10388;52.314;7.938;2022-09-24T01:56:04;12.47;;;11.17;;
20458;SDS011;10388;52.314;7.938;2022-09-24T01:58:43;13.77;;;11.20;;
20458;SDS011;10388;52.314;7.938;2022-09-24T02:01:23;16.23;;;11.33;;
20458;SDS011;10388;52.314;7.938;2022-09-24T02:04:03;13.73;;;11.57;;
20458;SDS011;10388;52.314;7.938;2022-09-24T02:06:39;16.53;;;12.67;;
20458;SDS011;10388;52.314;7.938;2022-09-24T02:09:33;14.60;;;11.33;;
20458;SDS011;10388;52.314;7.938;2022-09-24T02:17:43;13.13;;;11.10;;
20458;SDS011;10388;52.314;7.938;2022-09-24T02:20:18;13.40;;;11.97;;
20458;SDS011;10388;52.314;7.938;2022-09-24T02:22:50;14.83;;;10.60;;
20458;SDS011;10388;52.314;7.938;2022-09-24T02:25:29;14.67;;;12.43;;
20458;SDS011;10388;52.314;7.938;2022-09-24T02:28:07;14.53;;;11.97;;
20458;SDS011;10388;52.314;7.938;2022-09-24T02:30:39;17.50;;;12.00;;
20458;SDS011;10388;52.314;7.938;2022-09-24T02:33:13;15.20;;;11.73;;
20458;SDS011;10388;52.314;7.938;2022-09-24T02:36:03;17.20;;;12.70;;
20458;SDS011;10388;52.314;7.938;2022-09-24T02:38:35;16.97;;;13.93;;
20458;SDS011;10388;52.314;7.938;2022-09-24T02:41:06;16.47;;;13.17;;
20458;SDS011;10388;52.314;7.938;2022-09-24T02:43:37;15.90;;;13.93;;
20458;SDS011;10388;52.314;7.938;2022-09-24T02:46:09;16.23;;;14.00;;
20458;SDS011;10388;52.314;7.938;2022-09-24T02:48:40;16.80;;;14.47;;
20458;SDS011;10388;52.314;7.938;2022-09-24T02:51:11;17.60;;;14.73;;
20458;SDS011;10388;52.314;7.938;2022-09-24T02:53:41;18.77;;;13.87;;
20458;SDS011;10388;52.314;7.938;2022-09-24T02:56:12;16.83;;;14.10;;
20458;SDS011;10388;52.314;7.938;2022-09-24T02:58:42;15.20;;;13.60;;
20458;SDS011;10388;52.314;7.938;2022-09-24T03:01:13;19.80;;;15.43;;
20458;SDS011;10388;52.314;7.938;2022-09-24T03:03:43;18.23;;;15.13;;
20458;SDS011;10388;52.314;7.938;2022-09-24T03:06:14;19.30;;;16.33;;
20458;SDS011;10388;52.314;7.938;2022-09-24T03:08:45;18.70;;;16.70;;
20458;SDS011;10388;52.314;7.938;2022-09-24T03:11:16;19.43;;;15.60;;
20458;SDS011;10388;52.314;7.938;2022-09-24T03:13:46;20.37;;;15.90;;
20458;SDS011;10388;52.314;7.938;2022-09-24T03:16:18;19.93;;;15.90;;
20458;SDS011;10388;52.314;7.938;2022-09-24T03:18:49;18.93;;;16.87;;
20458;SDS011;10388;52.314;7.938;2022-09-24T03:21:20;19.37;;;16.80;;
20458;SDS011;10388;52.314;7.938;2022-09-24T03:23:51;23.60;;;17.43;;
20458;SDS011;10388;52.314;7.938;2022-09-24T03:26:21;21.07;;;17.50;;
20458;SDS011;10388;52.314;7.938;2022-09-24T03:28:52;24.67;;;17.13;;
20458;SDS011;10388;52.314;7.938;2022-09-24T03:31:23;23.97;;;17.37;;
20458;SDS011;10388;52.314;7.938;2022-09-24T03:33:53;23.27;;;17.50;;
20458;SDS011;10388;52.314;7.938;2022-09-24T03:36:24;23.57;;;19.37;;
20458;SDS011;10388;52.314;7.938;2022-09-24T03:38:56;20.97;;;18.20;;
20458;SDS011;10388;52.314;7.938;2022-09-24T03:41:27;21.90;;;18.27;;
20458;SDS011;10388;52.314;7.938;2022-09-24T03:43:57;23.00;;;19.20;;
20458;SDS011;10388;52.314;7.938;2022-09-24T03:46:28;28.53;;;18.77;;
20458;SDS011;10388;52.314;7.938;2022-09-24T03:48:59;21.67;;;18.03;;
20458;SDS011;10388;52.314;7.938;2022-09-24T03:51:29;27.27;;;18.73;;
20458;SDS011;10388;52.314;7.938;2022-09-24T03:54:00;21.80;;;18.97;;
20458;SDS011;10388;52.314;7.938;2022-09-24T03:56:30;22.20;;;18.33;;
20458;SDS011;10388;52.314;7.938;2022-09-24T03:59:01;22.83;;;19.20;;
20458;SDS011;10388;52.314;7.938;2022-09-24T04:01:31;26.27;;;19.77;;
20458;SDS011;10388;52.314;7.938;2022-09-24T04:04:04;23.87;;;19.60;;
20458;SDS011;10388;52.314;7.938;2022-09-24T04:06:34;23.50;;;19.77;;
20458;SDS011;10388;52.314;7.938;2022-09-24T04:09:05;26.97;;;20.00;;
20458;SDS011;10388;52.314;7.938;2022-09-24T04:11:35;26.07;;;19.73;;
20458;SDS011;10388;52.314;7.938;2022-09-24T04:14:06;24.80;;;20.80;;
20458;SDS011;10388;52.314;7.938;2022-09-24T04:16:38;24.60;;;20.57;;
20458;SDS011;10388;52.314;7.938;2022-09-24T04:19:09;23.80;;;20.47;;
20458;SDS011;10388;52.314;7.938;2022-09-24T04:21:44;23.57;;;19.83;;
20458;SDS011;10388;52.314;7.938;2022-09-24T04:24:15;25.37;;;20.40;;
20458;SDS011;10388;52.314;7.938;2022-09-24T04:26:45;26.53;;;22.03;;
20458;SDS011;10388;52.314;7.938;2022-09-24T04:29:16;27.80;;;21.77;;
20458;SDS011;10388;52.314;7.938;2022-09-24T04:31:47;28.33;;;22.70;;
20458;SDS011;10388;52.314;7.938;2022-09-24T04:34:18;28.30;;;22.83;;
20458;SDS011;10388;52.314;7.938;2022-09-24T04:36:49;27.60;;;22.20;;
20458;SDS011;10388;52.314;7.938;2022-09-24T04:39:20;27.07;;;22.27;;
20458;SDS011;10388;52.314;7.938;2022-09-24T04:41:55;31.10;;;23.27;;
20458;SDS011;10388;52.314;7.938;2022-09-24T04:44:26;28.23;;;21.23;;
20458;SDS011;10388;52.314;7.938;2022-09-24T04:46:58;27.97;;;22.73;;
20458;SDS011;10388;52.314;7.938;2022-09-24T04:49:30;25.63;;;22.63;;
20458;SDS011;10388;52.314;7.938;2022-09-24T04:52:00;27.63;;;23.03;;
20458;SDS011;10388;52.314;7.938;2022-09-24T04:54:32;28.60;;;22.93;;
20458;SDS011;10388;52.314;7.938;2022-09-24T04:57:02;28.33;;;23.40;;
20458;SDS011;10388;52.314;7.938;2022-09-24T04:59:33;29.00;;;24.30;;
20458;SDS011;10388;52.314;7.938;2022-09-24T05:02:03;32.07;;;23.57;;
20458;SDS011;10388;52.314;7.938;2022-09-24T05:04:36;32.17;;;24.93;;
20458;SDS011;10388;52.314;7.938;2022-09-24T05:07:07;30.67;;;24.83;;
20458;SDS011;10388;52.314;7.938;2022-09-24T05:09:38;31.33;;;24.53;;
20458;SDS011;10388;52.314;7.938;2022-09-24T05:12:08;34.33;;;25.83;;
20458;SDS011;10388;52.314;7.938;2022-09-24T05:14:39;34.70;;;25.40;;
20458;SDS011;10388;52.314;7.938;2022-09-24T05:17:09;33.93;;;24.93;;
20458;SDS011;10388;52.314;7.938;2022-09-24T05:19:40;34.50;;;25.53;;
20458;SDS011;10388;52.314;7.938;2022-09-24T05:22:10;32.77;;;24.07;;
20458;SDS011;10388;52.314;7.938;2022-09-24T05:24:41;30.50;;;23.53;;
20458;SDS011;10388;52.314;7.938;2022-09-24T05:27:11;32.83;;;25.40;;
20458;SDS011;10388;52.314;7.938;2022-09-24T05:29:42;31.53;;;24.43;;
20458;SDS011;10388;52.314;7.938;2022-09-24T05:32:14;31.17;;;25.00;;
20458;SDS011;10388;52.314;7.938;2022-09-24T05:34:46;30.90;;;24.30;;
20458;SDS011;10388;52.314;7.938;2022-09-24T05:37:17;33.83;;;24.33;;
20458;SDS011;10388;52.314;7.938;2022-09-24T05:39:47;28.63;;;23.33;;
20458;SDS011;10388;52.314;7.938;2022-09-24T05:42:18;30.97;;;23.97;;
20458;SDS011;10388;52.314;7.938;2022-09-24T05:44:49;31.40;;;24.10;;
20458;SDS011;10388;52.314;7.938;2022-09-24T05:47:19;33.10;;;25.60;;
20458;SDS011;10388;52.314;7.938;2022-09-24T05:49:50;31.50;;;24.00;;
20458;SDS011;10388;52.314;7.938;2022-09-24T05:52:20;31.33;;;23.87;;
20458;SDS011;10388;52.314;7.938;2022-09-24T05:54:51;32.90;;;23.50;;
20458;SDS011;10388;52.314;7.938;2022-09-24T05:57:21;30.80;;;24.37;;
20458;SDS011;10388;52.314;7.938;2022-09-24T05:59:52;31.20;;;23.80;;
20458;SDS011;10388;52.314;7.938;2022-09-24T06:02:23;32.20;;;24.73;;
20458;SDS011;10388;52.314;7.938;2022-09-24T06:04:53;30.30;;;23.53;;
20458;SDS011;10388;52.314;7.938;2022-09-24T06:07:24;32.37;;;22.90;;
20458;SDS011;10388;52.314;7.938;2022-09-24T06:09:54;32.00;;;23.50;;
20458;SDS011;10388;52.314;7.938;2022-09-24T06:12:28;30.93;;;22.77;;
20458;SDS011;10388;52.314;7.938;2022-09-24T06:14:58;33.80;;;23.40;;
20458;SDS011;10388;52.314;7.938;2022-09-24T06:17:29;31.50;;;23.67;;
20458;SDS011;10388;52.314;7.938;2022-09-24T06:20:01;29.90;;;22.80;;
20458;SDS011;10388;52.314;7.938;2022-09-24T06:22:31;33.47;;;23.03;;
20458;SDS011;10388;52.314;7.938;2022-09-24T06:25:02;28.20;;;22.13;;
20458;SDS011;10388;52.314;7.938;2022-09-24T06:27:33;31.30;;;22.33;;
20458;SDS011;10388;52.314;7.938;2022-09-24T06:30:03;30.60;;;21.83;;
20458;SDS011;10388;52.314;7.938;2022-09-24T06:32:34;29.67;;;22.30;;
20458;SDS011;10388;52.314;7.938;2022-09-24T06:35:05;29.50;;;21.53;;
20458;SDS011;10388;52.314;7.938;2022-09-24T06:37:36;26.40;;;20.43;;
20458;SDS011;10388;52.314;7.938;2022-09-24T06:40:06;28.07;;;21.67;;
20458;SDS011;10388;52.314;7.938;2022-09-24T06:42:38;23.57;;;19.23;;
20458;SDS011;10388;52.314;7.938;2022-09-24T06:45:08;27.47;;;19.90;;
20458;SDS011;10388;52.314;7.938;2022-09-24T06:47:39;25.50;;;19.47;;
20458;SDS011;10388;52.314;7.938;2022-09-24T06:50:10;28.53;;;20.43;;
20458;SDS011;10388;52.314;7.938;2022-09-24T06:52:40;27.53;;;19.77;;
20458;SDS011;10388;52.314;7.938;2022-09-24T06:55:11;31.57;;;21.03;;
20458;SDS011;10388;52.314;7.938;2022-09-24T06:57:41;24.70;;;20.07;;
20458;SDS011;10388;52.314;7.938;2022-09-24T07:00:12;24.43;;;18.40;;
20458;SDS011;10388;52.314;7.938;2022-09-24T07:02:49;24.37;;;18.57;;
20458;SDS011;10388;52.314;7.938;2022-09-24T07:05:20;23.63;;;17.80;;
20458;SDS011;10388;52.314;7.938;2022-09-24T07:07:50;23.20;;;18.13;;
20458;SDS011;10388;52.314;7.938;2022-09-24T07:10:21;25.57;;;18.53;;
20458;SDS011;10388;52.314;7.938;2022-09-24T07:12:53;23.60;;;18.03;;
20458;SDS011;10388;52.314;7.938;2022-09-24T07:15:24;24.63;;;18.40;;
20458;SDS011;10388;52.314;7.938;2022-09-24T07:17:57;23.17;;;17.83;;
20458;SDS011;10388;52.314;7.938;2022-09-24T07:20:28;23.20;;;17.77;;
20458;SDS011;10388;52.314;7.938;2022-09-24T07:22:58;23.20;;;17.43;;
20458;SDS011;10388;52.314;7.938;2022-09-24T07:25:29;23.20;;;16.43;;
20458;SDS011;10388;52.314;7.938;2022-09-24T07:28:03;23.30;;;17.03;;
20458;SDS011;10388;52.314;7.938;2022-09-24T07:30:35;20.83;;;15.73;;
20458;SDS011;10388;52.314;7.938;2022-09-24T07:33:07;19.03;;;15.70;;
20458;SDS011;10388;52.314;7.938;2022-09-24T07:35:38;18.43;;;15.97;;
20458;SDS011;10388;52.314;7.938;2022-09-24T07:38:10;19.57;;;15.67;;
20458;SDS011;10388;52.314;7.938;2022-09-24T07:40:41;18.70;;;14.73;;
20458;SDS011;10388;52.314;7.938;2022-09-24T07:43:13;20.67;;;16.20;;
20458;SDS011;10388;52.314;7.938;2022-09-24T07:45:44;18.77;;;14.80;;
20458;SDS011;10388;52.314;7.938;2022-09-24T07:48:15;17.73;;;14.83;;
20458;SDS011;10388;52.314;7.938;2022-09-24T07:50:46;18.87;;;14.97;;
20458;SDS011;10388;52.314;7.938;2022-09-24T07:53:16;17.63;;;14.00;;
20458;SDS011;10388;52.314;7.938;2022-09-24T07:55:47;19.77;;;15.43;;
20458;SDS011;10388;52.314;7.938;2022-09-24T07:58:18;19.03;;;14.57;;
20458;SDS011;10388;52.314;7.938;2022-09-24T08:00:49;18.20;;;15.03;;
20458;SDS011;10388;52.314;7.938;2022-09-24T08:03:19;19.53;;;15.07;;
20458;SDS011;10388;52.314;7.938;2022-09-24T08:05:50;20.87;;;15.53;;
20458;SDS011;10388;52.314;7.938;2022-09-24T08:08:25;16.73;;;13.53;;
20458;SDS011;10388;52.314;7.938;2022-09-24T08:10:56;18.63;;;14.33;;
20458;SDS011;10388;52.314;7.938;2022-09-24T08:13:26;17.80;;;14.13;;
20458;SDS011;10388;52.314;7.938;2022-09-24T08:15:57;18.37;;;14.87;;
20458;SDS011;10388;52.314;7.938;2022-09-24T08:18:29;17.67;;;14.60;;
20458;SDS011;10388;52.314;7.938;2022-09-24T08:23:36;17.23;;;13.77;;
20458;SDS011;10388;52.314;7.938;2022-09-24T08:26:08;16.70;;;13.90;;
20458;SDS011;10388;52.314;7.938;2022-09-24T08:28:40;17.90;;;13.97;;
20458;SDS011;10388;52.314;7.938;2022-09-24T08:31:13;16.00;;;13.47;;
20458;SDS011;10388;52.314;7.938;2022-09-24T08:33:43;17.53;;;14.17;;
20458;SDS011;10388;52.314;7.938;2022-09-24T08:36:15;18.10;;;14.23;;
20458;SDS011;10388;52.314;7.938;2022-09-24T08:38:47;18.33;;;14.70;;
20458;SDS011;10388;52.314;7.938;2022-09-24T08:41:20;18.10;;;13.83;;
20458;SDS011;10388;52.314;7.938;2022-09-24T08:44:36;18.27;;;14.67;;
20458;SDS011;10388;52.314;7.938;2022-09-24T08:50:28;18.47;;;13.67;;
20458;SDS011;10388;52.314;7.938;2022-09-24T08:55:39;17.87;;;14.70;;
20458;SDS011;10388;52.314;7.938;2022-09-24T09:10:02;18.27;;;14.50;;
20458;SDS011;10388;52.314;7.938;2022-09-24T09:13:08;21.17;;;14.43;;
20458;SDS011;10388;52.314;7.938;2022-09-24T09:15:48;18.60;;;14.13;;
20458;SDS011;10388;52.314;7.938;2022-09-24T09:18:42;19.70;;;14.17;;
20458;SDS011;10388;52.314;7.938;2022-09-24T09:21:16;17.20;;;14.63;;
20458;SDS011;10388;52.314;7.938;2022-09-24T09:23:48;18.20;;;14.97;;
20458;SDS011;10388;52.314;7.938;2022-09-24T09:26:20;19.20;;;15.90;;
20458;SDS011;10388;52.314;7.938;2022-09-24T09:28:50;20.97;;;15.97;;
20458;SDS011;10388;52.314;7.938;2022-09-24T09:34:26;21.07;;;16.70;;
20458;SDS011;10388;52.314;7.938;2022-09-24T09:37:25;19.50;;;15.57;;
20458;SDS011;10388;52.314;7.938;2022-09-24T09:42:47;22.00;;;16.23;;
20458;SDS011;10388;52.314;7.938;2022-09-24T09:45:39;20.23;;;15.93;;
20458;SDS011;10388;52.314;7.938;2022-09-24T09:48:11;19.77;;;15.80;;
20458;SDS011;10388;52.314;7.938;2022-09-24T09:50:45;20.00;;;16.00;;
20458;SDS011;10388;52.314;7.938;2022-09-24T09:53:22;21.53;;;16.00;;
20458;SDS011;10388;52.314;7.938;2022-09-24T09:55:54;24.57;;;16.80;;
20458;SDS011;10388;52.314;7.938;2022-09-24T09:58:30;20.00;;;15.10;;
20458;SDS011;10388;52.314;7.938;2022-09-24T10:01:08;21.07;;;15.87;;
20458;SDS011;10388;52.314;7.938;2022-09-24T10:06:28;21.77;;;15.90;;
20458;SDS011;10388;52.314;7.938;2022-09-24T10:09:05;21.07;;;16.77;;
20458;SDS011;10388;52.314;7.938;2022-09-24T10:11:48;26.80;;;16.53;;
20458;SDS011;10388;52.314;7.938;2022-09-24T10:14:19;22.13;;;15.77;;
20458;SDS011;10388;52.314;7.938;2022-09-24T10:16:51;20.33;;;14.90;;
20458;SDS011;10388;52.314;7.938;2022-09-24T10:19:25;20.20;;;15.70;;
20458;SDS011;10388;52.314;7.938;2022-09-24T10:21:57;23.33;;;17.07;;
20458;SDS011;10388;52.314;7.938;2022-09-24T10:24:36;20.13;;;16.03;;
20458;SDS011;10388;52.314;7.938;2022-09-24T10:27:11;25.63;;;17.60;;
20458;SDS011;10388;52.314;7.938;2022-09-24T10:29:43;25.03;;;17.70;;
20458;SDS011;10388;52.314;7.938;2022-09-24T10:32:33;23.70;;;18.10;;
20458;SDS011;10388;52.314;7.938;2022-09-24T10:35:17;20.23;;;15.93;;
20458;SDS011;10388;52.314;7.938;2022-09-24T10:37:58;17.13;;;15.07;;
20458;SDS011;10388;52.314;7.938;2022-09-24T10:40:30;18.40;;;13.43;;
20458;SDS011;10388;52.314;7.938;2022-09-24T10:43:15;19.33;;;14.17;;
20458;SDS011;10388;52.314;7.938;2022-09-24T10:52:02;14.63;;;12.40;;
20458;SDS011;10388;52.314;7.938;2022-09-24T10:55:16;13.07;;;10.97;;
20458;SDS011;10388;52.314;7.938;2022-09-24T10:57:58;10.80;;;9.70;;
20458;SDS011;10388;52.314;7.938;2022-09-24T11:00:46;12.10;;;10.00;;
20458;SDS011;10388;52.314;7.938;2022-09-24T11:17:46;9.97;;;8.27;;
20458;SDS011;10388;52.314;7.938;2022-09-24T11:20:34;10.37;;;8.07;;
20458;SDS011;10388;52.314;7.938;2022-09-24T11:23:18;10.03;;;7.80;;
20458;SDS011;10388;52.314;7.938;2022-09-24T11:26:16;9.03;;;7.27;;
20458;SDS011;10388;52.314;7.938;2022-09-24T11:29:08;9.00;;;7.73;;
20458;SDS011;10388;52.314;7.938;2022-09-24T11:31:49;8.43;;;7.53;;
20458;SDS011;10388;52.314;7.938;2022-09-24T11:37:43;10.33;;;7.93;;
20458;SDS011;10388;52.314;7.938;2022-09-24T11:40:41;10.87;;;9.23;;
20458;SDS011;10388;52.314;7.938;2022-09-24T11:43:48;10.67;;;9.40;;
20458;SDS011;10388;52.314;7.938;2022-09-24T11:46:22;9.50;;;8.43;;
20458;SDS011;10388;52.314;7.938;2022-09-24T11:52:02;11.27;;;9.00;;
20458;SDS011;10388;52.314;7.938;2022-09-24T11:54:58;9.90;;;7.77;;
20458;SDS011;10388;52.314;7.938;2022-09-24T12:00:22;10.80;;;8.70;;
20458;SDS011;10388;52.314;7.938;2022-09-24T12:02:58;9.63;;;8.50;;
20458;SDS011;10388;52.314;7.938;2022-09-24T12:06:04;10.63;;;8.50;;
20458;SDS011;10388;52.314;7.938;2022-09-24T12:08:54;9.10;;;8.17;;
20458;SDS011;10388;52.314;7.938;2022-09-24T12:11:34;10.83;;;7.80;;
20458;SDS011;10388;52.314;7.938;2022-09-24T12:14:24;8.80;;;7.80;;
20458;SDS011;10388;52.314;7.938;2022-09-24T12:17:00;8.90;;;6.87;;
20458;SDS011;10388;52.314;7.938;2022-09-24T12:19:37;10.13;;;7.53;;
20458;SDS011;10388;52.314;7.938;2022-09-24T12:22:17;9.33;;;8.27;;
20458;SDS011;10388;52.314;7.938;2022-09-24T12:24:52;8.90;;;7.83;;
20458;SDS011;10388;52.314;7.938;2022-09-24T12:27:32;10.17;;;8.10;;
20458;SDS011;10388;52.314;7.938;2022-09-24T12:35:58;9.17;;;7.90;;
20458;SDS011;10388;52.314;7.938;2022-09-24T12:38:51;8.67;;;7.67;;
20458;SDS011;10388;52.314;7.938;2022-09-24T12:41:35;9.17;;;7.80;;
20458;SDS011;10388;52.314;7.938;2022-09-24T12:49:34;8.67;;;7.70;;
20458;SDS011;10388;52.314;7.938;2022-09-24T12:52:16;10.10;;;7.57;;
20458;SDS011;10388;52.314;7.938;2022-09-24T12:54:52;8.07;;;7.10;;
20458;SDS011;10388;52.314;7.938;2022-09-24T12:57:26;8.43;;;7.10;;
20458;SDS011;10388;52.314;7.938;2022-09-24T13:00:33;8.60;;;7.50;;
20458;SDS011;10388;52.314;7.938;2022-09-24T13:03:00;9.90;;;7.80;;
20458;SDS011;10388;52.314;7.938;2022-09-24T13:10:53;7.93;;;7.13;;
20458;SDS011;10388;52.314;7.938;2022-09-24T13:13:30;9.47;;;6.60;;
20458;SDS011;10388;52.314;7.938;2022-09-24T13:16:04;7.40;;;6.17;;
20458;SDS011;10388;52.314;7.938;2022-09-24T13:18:52;6.27;;;5.67;;
20458;SDS011;10388;52.314;7.938;2022-09-24T13:21:25;7.10;;;5.73;;
20458;SDS011;10388;52.314;7.938;2022-09-24T13:23:57;6.43;;;5.13;;
20458;SDS011;10388;52.314;7.938;2022-09-24T13:26:39;5.33;;;4.83;;
20458;SDS011;10388;52.314;7.938;2022-09-24T13:29:25;4.83;;;4.27;;
20458;SDS011;10388;52.314;7.938;2022-09-24T13:31:58;4.57;;;3.90;;
20458;SDS011;10388;52.314;7.938;2022-09-24T13:34:32;4.87;;;4.40;;
20458;SDS011;10388;52.314;7.938;2022-09-24T13:37:09;4.33;;;3.93;;
20458;SDS011;10388;52.314;7.938;2022-09-24T13:39:54;4.50;;;4.10;;
20458;SDS011;10388;52.314;7.938;2022-09-24T13:42:45;4.80;;;4.07;;
20458;SDS011;10388;52.314;7.938;2022-09-24T13:45:25;4.13;;;3.23;;
20458;SDS011;10388;52.314;7.938;2022-09-24T13:48:03;3.67;;;3.13;;
20458;SDS011;10388;52.314;7.938;2022-09-24T13:50:36;4.50;;;3.10;;
20458;SDS011;10388;52.314;7.938;2022-09-24T13:53:32;3.23;;;2.93;;
20458;SDS011;10388;52.314;7.938;2022-09-24T13:56:12;2.97;;;2.33;;
20458;SDS011;10388;52.314;7.938;2022-09-24T13:58:44;3.10;;;2.80;;
20458;SDS011;10388;52.314;7.938;2022-09-24T14:01:23;3.30;;;2.90;;
20458;SDS011;10388;52.314;7.938;2022-09-24T14:04:00;4.17;;;2.87;;
20458;SDS011;10388;52.314;7.938;2022-09-24T14:06:35;3.30;;;3.00;;
20458;SDS011;10388;52.314;7.938;2022-09-24T14:09:25;4.97;;;2.90;;
20458;SDS011;10388;52.314;7.938;2022-09-24T14:12:13;4.03;;;3.63;;
20458;SDS011;10388;52.314;7.938;2022-09-24T14:14:49;4.70;;;3.13;;
20458;SDS011;10388;52.314;7.938;2022-09-24T14:17:22;3.30;;;3.00;;
20458;SDS011;10388;52.314;7.938;2022-09-24T14:19:54;4.70;;;3.63;;
20458;SDS011;10388;52.314;7.938;2022-09-24T14:22:27;5.43;;;3.53;;
20458;SDS011;10388;52.314;7.938;2022-09-24T14:25:06;4.87;;;4.27;;
20458;SDS011;10388;52.314;7.938;2022-09-24T14:27:40;4.70;;;4.23;;
20458;SDS011;10388;52.314;7.938;2022-09-24T14:30:17;7.37;;;4.50;;
20458;SDS011;10388;52.314;7.938;2022-09-24T14:33:01;5.00;;;4.50;;
20458;SDS011;10388;52.314;7.938;2022-09-24T14:35:38;6.27;;;4.90;;
20458;SDS011;10388;52.314;7.938;2022-09-24T14:38:15;5.57;;;4.37;;
20458;SDS011;10388;52.314;7.938;2022-09-24T14:46:22;5.30;;;4.80;;
20458;SDS011;10388;52.314;7.938;2022-09-24T14:49:28;5.80;;;5.20;;
20458;SDS011;10388;52.314;7.938;2022-09-24T14:52:01;6.13;;;5.47;;
20458;SDS011;10388;52.314;7.938;2022-09-24T14:54:37;5.73;;;5.13;;
20458;SDS011;10388;52.314;7.938;2022-09-24T14:59:47;8.10;;;5.43;;
20458;SDS011;10388;52.314;7.938;2022-09-24T15:02:23;6.07;;;5.23;;
20458;SDS011;10388;52.314;7.938;2022-09-24T15:04:58;6.40;;;5.80;;
20458;SDS011;10388;52.314;7.938;2022-09-24T15:07:31;6.47;;;5.87;;
20458;SDS011;10388;52.314;7.938;2022-09-24T15:10:03;9.73;;;6.27;;
20458;SDS011;10388;52.314;7.938;2022-09-24T15:12:35;6.57;;;4.70;;
20458;SDS011;10388;52.314;7.938;2022-09-24T15:17:45;4.90;;;4.40;;
20458;SDS011;10388;52.314;7.938;2022-09-24T15:20:16;4.57;;;3.97;;
20458;SDS011;10388;52.314;7.938;2022-09-24T15:22:46;4.50;;;4.07;;
20458;SDS011;10388;52.314;7.938;2022-09-24T15:25:17;4.57;;;4.17;;
20458;SDS011;10388;52.314;7.938;2022-09-24T15:27:47;3.87;;;3.47;;
20458;SDS011;10388;52.314;7.938;2022-09-24T15:30:21;4.70;;;3.50;;
20458;SDS011;10388;52.314;7.938;2022-09-24T15:32:52;3.90;;;3.50;;
20458;SDS011;10388;52.314;7.938;2022-09-24T15:35:23;4.80;;;3.70;;
20458;SDS011;10388;52.314;7.938;2022-09-24T15:37:53;4.13;;;3.43;;
20458;SDS011;10388;52.314;7.938;2022-09-24T15:40:24;4.10;;;3.70;;
20458;SDS011;10388;52.314;7.938;2022-09-24T15:42:59;4.83;;;4.33;;
20458;SDS011;10388;52.314;7.938;2022-09-24T15:45:30;4.60;;;4.17;;
20458;SDS011;10388;52.314;7.938;2022-09-24T15:48:01;4.90;;;4.40;;
20458;SDS011;10388;52.314;7.938;2022-09-24T15:50:31;6.87;;;4.50;;
20458;SDS011;10388;52.314;7.938;2022-09-24T15:53:02;4.73;;;4.30;;
20458;SDS011;10388;52.314;7.938;2022-09-24T15:55:33;7.97;;;5.10;;
20458;SDS011;10388;52.314;7.938;2022-09-24T15:58:09;5.53;;;4.93;;
20458;SDS011;10388;52.314;7.938;2022-09-24T16:00:41;5.30;;;4.80;;
20458;SDS011;10388;52.314;7.938;2022-09-24T16:03:14;5.80;;;5.20;;
20458;SDS011;10388;52.314;7.938;2022-09-24T16:05:56;5.30;;;4.80;;
20458;SDS011;10388;52.314;7.938;2022-09-24T16:08:28;6.07;;;5.47;;
20458;SDS011;10388;52.314;7.938;2022-09-24T16:10:58;5.73;;;4.60;;
20458;SDS011;10388;52.314;7.938;2022-09-24T16:13:29;5.90;;;5.10;;
20458;SDS011;10388;52.314;7.938;2022-09-24T16:15:59;5.57;;;5.07;;
20458;SDS011;10388;52.314;7.938;2022-09-24T16:18:30;4.67;;;4.27;;
20458;SDS011;10388;52.314;7.938;2022-09-24T16:21:03;4.93;;;4.43;;
20458;SDS011;10388;52.314;7.938;2022-09-24T16:23:35;7.30;;;5.30;;
20458;SDS011;10388;52.314;7.938;2022-09-24T16:26:05;6.23;;;5.47;;
20458;SDS011;10388;52.314;7.938;2022-09-24T16:28:36;5.10;;;4.60;;
20458;SDS011;10388;52.314;7.938;2022-09-24T16:31:06;6.03;;;5.10;;
20458;SDS011;10388;52.314;7.938;2022-09-24T16:33:37;4.77;;;4.37;;
20458;SDS011;10388;52.314;7.938;2022-09-24T16:36:08;5.70;;;5.13;;
20458;SDS011;10388;52.314;7.938;2022-09-24T16:38:39;5.77;;;5.17;;
20458;SDS011;10388;52.314;7.938;2022-09-24T16:41:10;6.07;;;5.27;;
20458;SDS011;10388;52.314;7.938;2022-09-24T16:43:40;7.77;;;5.97;;
20458;SDS011;10388;52.314;7.938;2022-09-24T16:46:11;7.07;;;6.13;;
20458;SDS011;10388;52.314;7.938;2022-09-24T16:48:42;7.87;;;7.07;;
20458;SDS011;10388;52.314;7.938;2022-09-24T16:51:13;6.20;;;5.60;;
20458;SDS011;10388;52.314;7.938;2022-09-24T16:53:44;14.70;;;7.47;;
20458;SDS011;10388;52.314;7.938;2022-09-24T16:56:18;6.60;;;5.90;;
20458;SDS011;10388;52.314;7.938;2022-09-24T16:58:49;6.40;;;5.80;;
20458;SDS011;10388;52.314;7.938;2022-09-24T17:01:20;12.57;;;6.27;;
20458;SDS011;10388;52.314;7.938;2022-09-24T17:03:51;11.67;;;6.20;;
20458;SDS011;10388;52.314;7.938;2022-09-24T17:06:27;5.83;;;5.20;;
20458;SDS011;10388;52.314;7.938;2022-09-24T17:08:59;6.30;;;5.70;;
20458;SDS011;10388;52.314;7.938;2022-09-24T17:11:48;7.67;;;6.00;;
20458;SDS011;10388;52.314;7.938;2022-09-24T17:14:19;7.67;;;6.37;;